• Join FlightAware (Why Join?)
  • Login
  • US Flag 
07:08AM EDT


 

Airport Tracker/Info


-or-


 

Live Flight TrackerFlight Track Log ✈ EJA396 ✈ 04-Oct-2013 ✈ KBNA - KCOU

Flight Track Log - Related Links

Times and Time Zones

All times are in EDT time to prevent confusion due to time zone crossing. See the EJA396 flight status page for this flight to view local times or setup timezone preferences in your user account.

Time Position Orientation Groundspeed Altitude Reporting Facility
EDT Latitude Longitude Course Direction KTS MPH feet Rate Location/Type
11:43AM 36.0833 -86.7833 258° West 264 304 5,800  Level Nashville TRACON
11:45AM 36.1667 -86.9017 311° West 304 350 11,200 3,180 Climbing Memphis Center
11:46AM 36.2458 -86.9756 323° Northwest 346 398 14,000 1,860 Climbing Memphis Center
11:47AM 36.3206 -87.0419 324° Northwest 362 417 15,000 1,920 Climbing Memphis Center
11:48AM 36.4039 -87.1183 324° Northwest 373 429 17,900 2,700 Climbing Memphis Center
11:49AM 36.4769 -87.1981 319° Northwest 356 410 20,500 2,220 Climbing Memphis Center
11:50AM 36.5458 -87.2883 314° West 349 402 22,400 1,860 Climbing Memphis Center
11:51AM 36.6214 -87.3917 312° West 361 415 24,300 1,800 Climbing Memphis Center
11:52AM 36.6636 -87.5117 294° West 371 427 26,100 1,800 Climbing Memphis Center
11:53AM 36.7061 -87.6342 293° West 384 442 27,900 1,680 Climbing Memphis Center
11:54AM 36.7608 -87.7542 300° West 394 453 29,500 1,500 Climbing Memphis Center
11:55AM 36.8297 -87.8633 308° West 407 468 31,000 1,200 Climbing Memphis Center
11:56AM 36.9006 -87.9753 308° West 412 474 32,000 480 Climbing Memphis Center
11:57AM 36.9758 -88.0950 308° West 430 495 32,000  Level Memphis Center
11:58AM 37.0422 -88.1997 308° West 436 502 32,000  Level Memphis Center
11:59AM 37.1150 -88.3200 307° West 436 502 32,000  Level Memphis Center
12:00PM 37.1900 -88.4431 307° West 436 502 32,000  Level Memphis Center
12:01PM 37.2647 -88.5611 309° West 436 502 32,000  Level Memphis Center
12:03PM 37.4239 -88.8222 308° West 437 503 32,000  Level Kansas City Center
12:04PM 37.5125 -88.9672 308° West 438 504 32,000  Level Kansas City Center
12:05PM 37.5864 -89.0886 308° West 437 503 32,000  Level Kansas City Center
12:06PM 37.6611 -89.2122 307° West 439 505 32,000  Level Kansas City Center
12:07PM 37.7350 -89.3347 307° West 440 506 32,000  Level Kansas City Center
12:08PM 37.8083 -89.4603 306° West 443 510 32,000  Level Kansas City Center
12:09PM 37.8906 -89.6061 306° West 439 505 32,000  Level Kansas City Center
12:10PM 37.9408 -89.7439 295° West 431 496 32,000  Level Kansas City Center
12:11PM 37.9964 -89.8928 295° West 432 497 32,000  Level Kansas City Center
12:12PM 38.0472 -90.0306 295° West 432 497 32,000 -240 Level Kansas City Center
12:13PM 38.0950 -90.1619 295° West 429 494 31,600 -960 Descending Kansas City Center
12:14PM 38.1447 -90.2981 295° West 426 490 30,100 -1,500 Descending Kansas City Center
12:15PM 38.1956 -90.4378 295° West 430 495 28,600 -1,500 Descending Kansas City Center
12:16PM 38.2450 -90.5786 294° West 434 499 27,000 -1,680 Descending Kansas City Center
12:17PM 38.3033 -90.7400 295° West 420 483 25,200 -1,620 Descending Kansas City Center
12:18PM 38.3503 -90.8733 294° West 414 476 23,700 -1,500 Descending Kansas City Center
12:19PM 38.3986 -91.0047 295° West 410 472 22,100 -1,560 Descending Kansas City Center
12:20PM 38.4494 -91.1314 297° West 404 465 20,500 -1,560 Descending Kansas City Center
12:21PM 38.4950 -91.2542 295° West 391 450 18,900 -1,740 Descending Kansas City Center
12:22PM 38.5414 -91.3919 293° West 379 436 17,000 -1,920 Descending Kansas City Center
12:23PM 38.5825 -91.5117 294° West 372 428 15,000 -2,040 Descending Kansas City Center
12:24PM 38.6225 -91.6311 293° West 369 425 12,800 -2,160 Descending Kansas City Center
12:26PM 38.6608 -91.7461 293° West 359 413 10,600 -2,100 Descending Kansas City Center
12:27PM 38.6939 -91.8417 294° West 311 358 8,500 -2,460 Descending Kansas City Center
12:28PM 38.7494 -91.9411 306° West 289 333 5,600 -2,400 Descending Kansas City Center
12:29PM 38.7933 -92.0236 304° West 283 326 3,600 -1,260 Descending Kansas City Center
12:30PM 38.8258 -92.1025 298° West 266 306 3,000 -960 Descending Kansas City Center
12:31PM 38.8489 -92.1831 290° West 252 290 1,700 -780 Descending Kansas City Center
12:32PM 38.8153 -92.2406 233° Southwest 233 268 1,400 -300 Descending Kansas City Center
12:34PM 38.8167 -92.2167 303° West  Level FlightAware Approximate
12:41PM 38.8181 -92.2196 303° West  Level Estimated
12:42PM 38.8167 -92.2167 303° West  Level FlightAware Approximate